createdAt,value
2022-12-03T00:01:31.795Z,6.25
2022-12-03T00:03:59.659Z,6.29
2022-12-03T00:06:32.933Z,6.32
2022-12-03T00:09:02.230Z,6.22
2022-12-03T00:11:30.103Z,6.46
2022-12-03T00:13:59.263Z,6.39
2022-12-03T00:16:27.277Z,5.79
2022-12-03T00:18:55.010Z,5.05
2022-12-03T00:21:24.665Z,5.48
2022-12-03T00:23:52.713Z,5.72
2022-12-03T00:26:20.557Z,5.96
2022-12-03T00:28:49.224Z,5.74
2022-12-03T00:31:18.425Z,6.17
2022-12-03T00:33:46.281Z,5.96
2022-12-03T00:36:14.047Z,6.23
2022-12-03T00:38:41.749Z,6.27
2022-12-03T00:41:09.485Z,5.94
2022-12-03T00:43:37.209Z,6.03
2022-12-03T00:46:05.014Z,6.02
2022-12-03T00:48:34.229Z,5.92
2022-12-03T00:51:02.051Z,6.02
2022-12-03T00:53:29.896Z,5.35
2022-12-03T00:55:57.710Z,5.58
2022-12-03T00:58:25.412Z,5.77
2022-12-03T01:00:53.151Z,5.77
2022-12-03T01:03:20.915Z,6.12
2022-12-03T01:05:50.036Z,5.90
2022-12-03T01:08:17.967Z,6.06
2022-12-03T01:10:45.758Z,5.38
2022-12-03T01:13:13.640Z,5.42
2022-12-03T01:15:41.525Z,5.85
2022-12-03T01:18:09.306Z,5.54
2022-12-03T01:20:38.537Z,5.74
2022-12-03T01:23:07.619Z,5.44
2022-12-03T01:25:35.411Z,5.03
2022-12-03T01:28:03.170Z,4.71
2022-12-03T01:30:50.958Z,5.28
2022-12-03T01:33:18.051Z,5.33
2022-12-03T01:35:45.797Z,5.94
2022-12-03T01:38:14.891Z,5.64
2022-12-03T01:40:42.699Z,5.08
2022-12-03T01:43:10.396Z,5.05
2022-12-03T01:45:38.111Z,5.18
2022-12-03T01:48:06.022Z,5.58
2022-12-03T01:50:34.931Z,5.18
2022-12-03T01:53:05.000Z,5.07
2022-12-03T01:55:34.179Z,4.91
2022-12-03T01:58:03.211Z,4.86
2022-12-03T02:00:31.681Z,5.13
2022-12-03T02:03:01.772Z,5.33
2022-12-03T02:05:31.008Z,5.50
2022-12-03T02:07:59.750Z,5.44
2022-12-03T02:10:31.673Z,5.58
2022-12-03T02:13:03.938Z,5.67
2022-12-03T02:15:31.707Z,5.93
2022-12-03T02:17:59.733Z,5.52
2022-12-03T02:20:27.898Z,5.12
2022-12-03T02:23:05.755Z,5.46
2022-12-03T02:25:36.778Z,5.40
2022-12-03T02:28:06.971Z,5.49
2022-12-03T02:30:35.369Z,5.42
2022-12-03T02:33:04.133Z,6.07
2022-12-03T02:35:34.917Z,6.02
2022-12-03T02:38:14.231Z,5.75
2022-12-03T02:40:45.015Z,5.70
2022-12-03T02:43:14.888Z,5.76
2022-12-03T02:45:44.719Z,6.24
2022-12-03T02:48:17.084Z,6.35
2022-12-03T02:50:48.236Z,6.13
2022-12-03T02:53:20.099Z,6.25
2022-12-03T02:55:50.369Z,6.24
2022-12-03T02:58:19.065Z,6.36
2022-12-03T03:00:47.599Z,6.45
2022-12-03T03:03:19.854Z,6.32
2022-12-03T03:05:49.703Z,6.35
2022-12-03T03:08:18.817Z,6.17
2022-12-03T03:10:50.875Z,5.57
2022-12-03T03:13:21.023Z,5.56
2022-12-03T03:15:49.242Z,5.24
2022-12-03T03:18:17.871Z,5.35
2022-12-03T03:20:46.244Z,5.02
2022-12-03T03:23:17.563Z,5.13
2022-12-03T03:25:47.742Z,5.61
2022-12-03T03:28:17.683Z,5.30
2022-12-03T03:30:45.832Z,5.45
2022-12-03T03:33:16.867Z,5.36
2022-12-03T03:35:46.398Z,5.52
2022-12-03T03:38:14.589Z,5.58
2022-12-03T03:40:43.232Z,5.62
2022-12-03T03:43:11.104Z,5.70
2022-12-03T03:45:40.376Z,5.55
2022-12-03T03:48:08.242Z,5.37
2022-12-03T03:50:36.346Z,5.41
2022-12-03T03:53:05.705Z,5.22
2022-12-03T03:55:34.049Z,5.14
2022-12-03T03:58:02.113Z,4.94
2022-12-03T04:00:30.975Z,4.73
2022-12-03T04:03:00.010Z,4.90
2022-12-03T04:05:28.832Z,4.91
2022-12-03T04:07:56.647Z,5.10
2022-12-03T04:10:42.171Z,5.31
2022-12-03T04:13:09.889Z,5.51
2022-12-03T04:15:37.585Z,5.59
2022-12-03T04:18:24.065Z,5.41
2022-12-03T04:21:11.815Z,5.16
2022-12-03T04:23:39.154Z,5.29
2022-12-03T04:26:27.461Z,4.97
2022-12-03T04:28:55.450Z,5.07
2022-12-03T04:31:40.771Z,5.13
2022-12-03T04:34:27.859Z,4.92
2022-12-03T04:36:56.636Z,4.89
2022-12-03T04:39:24.357Z,5.33
2022-12-03T04:41:52.039Z,4.97
2022-12-03T04:44:36.117Z,5.13
2022-12-03T04:47:07.570Z,5.46
2022-12-03T04:49:37.930Z,4.99
2022-12-03T04:52:05.903Z,5.07
2022-12-03T04:54:34.300Z,4.92
2022-12-03T04:57:02.086Z,5.15
2022-12-03T04:59:29.936Z,5.18
2022-12-03T05:01:58.822Z,5.50
2022-12-03T05:04:26.701Z,5.56
2022-12-03T05:06:55.965Z,5.20
2022-12-03T05:09:23.810Z,5.06
2022-12-03T05:11:51.486Z,4.82
2022-12-03T05:14:19.317Z,5.52
2022-12-03T05:16:47.096Z,5.24
2022-12-03T05:19:14.883Z,4.78
2022-12-03T05:21:41.598Z,4.83
2022-12-03T05:24:10.662Z,4.34
2022-12-03T05:26:38.367Z,5.02
2022-12-03T05:29:06.087Z,4.98
2022-12-03T05:31:33.835Z,5.04
2022-12-03T05:34:01.596Z,5.18
2022-12-03T05:36:29.352Z,4.56
2022-12-03T05:38:57.079Z,4.78
2022-12-03T05:41:43.563Z,5.26
2022-12-03T05:44:14.023Z,4.83
2022-12-03T05:46:43.901Z,5.04
2022-12-03T05:49:11.647Z,5.07
2022-12-03T05:51:39.323Z,5.12
2022-12-03T05:54:07.141Z,4.82
2022-12-03T05:56:36.207Z,4.71
2022-12-03T05:59:03.919Z,4.58
2022-12-03T06:01:31.675Z,4.58
2022-12-03T06:03:59.448Z,4.84
2022-12-03T06:06:27.255Z,4.56
2022-12-03T06:08:55.186Z,4.76
2022-12-03T06:11:22.891Z,4.24
2022-12-03T06:13:52.013Z,4.47
2022-12-03T06:16:19.872Z,4.84
2022-12-03T06:18:47.706Z,4.56
2022-12-03T06:21:15.553Z,4.22
2022-12-03T06:23:44.670Z,4.42
2022-12-03T06:26:12.824Z,4.33
2022-12-03T06:28:41.238Z,4.12
2022-12-03T06:31:10.408Z,4.44
2022-12-03T06:33:38.204Z,4.59
2022-12-03T06:36:06.659Z,4.49
2022-12-03T06:38:34.423Z,4.27
2022-12-03T06:41:02.202Z,4.82
2022-12-03T06:43:30.887Z,5.09
2022-12-03T06:45:58.747Z,4.83
2022-12-03T06:48:27.905Z,4.18
2022-12-03T06:50:55.729Z,4.48
2022-12-03T06:53:23.513Z,4.88
2022-12-03T06:55:51.290Z,4.61
2022-12-03T06:58:19.074Z,4.38
2022-12-03T07:00:46.933Z,4.41
2022-12-03T07:03:14.800Z,4.27
2022-12-03T07:05:44.066Z,4.16
2022-12-03T07:08:11.905Z,4.28
2022-12-03T07:10:39.695Z,4.81
2022-12-03T07:13:07.591Z,5.07
2022-12-03T07:15:49.244Z,4.23
2022-12-03T07:18:17.145Z,4.61
2022-12-03T07:20:46.306Z,4.68
2022-12-03T07:23:14.106Z,5.26
2022-12-03T07:25:41.766Z,4.95
2022-12-03T07:28:09.540Z,4.83
2022-12-03T07:30:37.195Z,4.95
2022-12-03T07:33:04.903Z,4.93
2022-12-03T07:35:32.726Z,4.83
2022-12-03T07:38:01.841Z,4.45
2022-12-03T07:40:29.607Z,4.85
2022-12-03T07:42:57.372Z,4.66
2022-12-03T07:45:25.137Z,4.30
2022-12-03T07:47:53.143Z,5.01
2022-12-03T07:50:20.787Z,4.82
2022-12-03T07:52:48.528Z,5.07
2022-12-03T07:55:17.783Z,5.18
2022-12-03T07:57:45.890Z,4.61
2022-12-03T08:00:15.430Z,4.77
2022-12-03T08:02:43.327Z,4.85
2022-12-03T08:05:11.455Z,5.16
2022-12-03T08:07:39.423Z,5.11
2022-12-03T08:10:08.485Z,5.10
2022-12-03T08:12:43.577Z,4.96
2022-12-03T08:15:13.904Z,5.18
2022-12-03T08:17:42.489Z,4.92
2022-12-03T08:20:16.066Z,5.01
2022-12-03T08:22:48.613Z,5.06
2022-12-03T08:25:21.840Z,5.39
2022-12-03T08:27:51.941Z,5.08
2022-12-03T08:30:20.518Z,5.09
2022-12-03T08:32:49.034Z,5.50
2022-12-03T08:35:25.543Z,5.11
2022-12-03T08:37:59.807Z,5.63
2022-12-03T08:40:35.699Z,5.35
2022-12-03T08:43:13.779Z,4.92
2022-12-03T08:45:43.461Z,5.30
2022-12-03T08:48:37.724Z,5.46
2022-12-03T08:51:12.109Z,5.59
2022-12-03T08:53:43.040Z,5.90
2022-12-03T08:56:21.676Z,5.60
2022-12-03T08:58:53.944Z,5.74
2022-12-03T09:01:31.011Z,5.93
2022-12-03T09:04:17.996Z,5.86
2022-12-03T09:06:48.566Z,5.89
2022-12-03T09:09:16.705Z,6.17
2022-12-03T09:11:44.966Z,6.31
2022-12-03T09:14:18.534Z,5.46
2022-12-03T09:16:48.034Z,5.30
2022-12-03T09:19:16.359Z,5.55
2022-12-03T09:21:44.709Z,4.97
2022-12-03T09:24:12.521Z,5.55
2022-12-03T09:26:40.559Z,5.56
2022-12-03T09:29:12.134Z,5.12
2022-12-03T09:31:41.982Z,5.00
2022-12-03T09:34:12.207Z,5.19
2022-12-03T09:36:40.644Z,5.54
2022-12-03T09:39:08.522Z,5.65
2022-12-03T09:41:37.020Z,5.65
2022-12-03T09:44:05.743Z,5.50
2022-12-03T09:46:36.163Z,5.81
2022-12-03T09:49:13.910Z,5.57
2022-12-03T09:51:45.112Z,5.67
2022-12-03T09:54:21.857Z,5.50
2022-12-03T09:56:50.110Z,6.09
2022-12-03T09:59:18.514Z,5.65
2022-12-03T10:01:46.430Z,5.74
2022-12-03T10:04:15.965Z,6.04
2022-12-03T10:06:45.995Z,5.45
2022-12-03T10:09:17.305Z,6.00
2022-12-03T10:11:45.470Z,6.07
2022-12-03T10:14:15.304Z,6.43
2022-12-03T10:16:43.243Z,5.62
2022-12-03T10:19:18.355Z,5.79
2022-12-03T10:21:48.054Z,5.72
2022-12-03T10:24:21.187Z,6.13
2022-12-03T10:26:50.895Z,5.84
2022-12-03T10:29:21.051Z,6.09
2022-12-03T10:31:56.804Z,5.84
2022-12-03T10:34:30.607Z,5.77
2022-12-03T10:37:15.171Z,5.66
2022-12-03T10:40:09.274Z,5.35
2022-12-03T10:42:39.340Z,5.51
2022-12-03T10:45:15.604Z,5.70
2022-12-03T10:47:44.468Z,5.60
2022-12-03T10:50:18.732Z,5.25
2022-12-03T10:52:48.403Z,4.71
2022-12-03T10:55:17.102Z,4.70
2022-12-03T10:57:46.385Z,4.84
2022-12-03T11:00:20.424Z,5.20
2022-12-03T11:02:56.191Z,4.93
2022-12-03T11:05:27.751Z,4.91
2022-12-03T11:07:57.896Z,4.81
2022-12-03T11:10:26.277Z,4.78
2022-12-03T11:13:29.096Z,4.78
2022-12-03T11:15:57.800Z,4.91
2022-12-03T11:19:01.141Z,5.02
2022-12-03T11:21:29.886Z,4.93
2022-12-03T11:24:18.339Z,4.98
2022-12-03T11:27:09.475Z,5.12
2022-12-03T11:29:55.757Z,4.81
2022-12-03T11:33:00.275Z,4.76
2022-12-03T11:35:29.793Z,4.73
2022-12-03T11:46:30.287Z,4.92
2022-12-03T11:49:00.790Z,4.59
2022-12-03T11:51:30.778Z,4.91
2022-12-03T11:54:02.394Z,5.10
2022-12-03T11:56:31.633Z,5.06
2022-12-03T11:59:01.703Z,5.09
2022-12-03T12:01:38.955Z,4.91
2022-12-03T12:04:12.201Z,4.71
2022-12-03T12:06:53.555Z,4.64
2022-12-03T12:09:52.026Z,4.84
2022-12-03T12:12:30.642Z,4.87
2022-12-03T12:14:59.876Z,4.86
2022-12-03T12:17:36.596Z,4.61
2022-12-03T12:20:25.195Z,4.40
2022-12-03T12:22:54.142Z,4.53
2022-12-03T12:25:42.449Z,4.53
2022-12-03T12:28:10.964Z,4.51
2022-12-03T12:30:41.351Z,4.46
2022-12-03T12:33:19.620Z,4.31
2022-12-03T12:35:47.548Z,4.24
2022-12-03T12:38:18.083Z,4.67
2022-12-03T12:40:49.462Z,4.41
2022-12-03T12:43:24.362Z,4.41
2022-12-03T12:45:54.548Z,4.24
2022-12-03T12:48:25.976Z,4.43
2022-12-03T12:51:00.113Z,4.30
2022-12-03T12:53:29.415Z,4.44
2022-12-03T12:55:59.495Z,4.63
2022-12-03T12:58:33.978Z,4.78
2022-12-03T13:01:05.073Z,4.86
2022-12-03T13:03:36.110Z,4.95
2022-12-03T13:06:04.449Z,4.92
2022-12-03T13:08:34.916Z,5.09
2022-12-03T13:11:05.519Z,4.80
2022-12-03T13:13:43.376Z,4.72
2022-12-03T13:16:17.960Z,4.76
2022-12-03T13:18:49.685Z,4.88
2022-12-03T13:21:26.592Z,4.82
2022-12-03T13:23:56.813Z,4.68
2022-12-03T13:26:37.703Z,4.61
2022-12-03T13:29:11.998Z,4.73
2022-12-03T13:31:43.774Z,4.20
2022-12-03T13:34:19.756Z,4.09
2022-12-03T13:36:53.512Z,4.24
2022-12-03T13:39:31.459Z,4.01
2022-12-03T13:42:17.606Z,3.78
2022-12-03T13:44:50.660Z,4.38
2022-12-03T13:47:21.680Z,4.57
2022-12-03T13:49:54.349Z,4.72
2022-12-03T13:52:26.032Z,4.43
2022-12-03T13:54:56.587Z,3.93
2022-12-03T13:57:24.557Z,3.84
2022-12-03T13:59:53.025Z,4.47
2022-12-03T14:02:21.590Z,4.48
2022-12-03T14:04:53.090Z,4.25
2022-12-03T14:07:26.633Z,4.29
2022-12-03T14:09:54.575Z,4.33
2022-12-03T14:12:30.237Z,3.98
2022-12-03T14:14:58.229Z,4.23
2022-12-03T14:17:25.974Z,4.09
2022-12-03T14:19:55.325Z,4.31
2022-12-03T14:22:25.314Z,4.49
2022-12-03T14:24:53.642Z,4.20
2022-12-03T14:27:22.168Z,4.09
2022-12-03T14:29:49.933Z,4.11
2022-12-03T14:32:17.765Z,4.29
2022-12-03T14:34:45.489Z,4.13
2022-12-03T14:37:14.833Z,4.08
2022-12-03T14:39:43.084Z,3.91
2022-12-03T14:42:16.836Z,4.08
2022-12-03T14:44:46.816Z,4.31
2022-12-03T14:47:16.197Z,4.24
2022-12-03T14:49:43.968Z,4.06
2022-12-03T14:52:12.689Z,4.08
2022-12-03T14:54:43.140Z,3.97
2022-12-03T14:57:12.287Z,3.99
2022-12-03T14:59:40.880Z,3.72
2022-12-03T15:02:09.563Z,3.67
2022-12-03T15:04:37.919Z,3.80
2022-12-03T15:07:06.057Z,3.82
2022-12-03T15:09:34.005Z,3.52
2022-12-03T15:12:05.686Z,3.72
2022-12-03T15:14:33.748Z,4.10
2022-12-03T15:17:01.582Z,3.50
2022-12-03T15:19:29.387Z,3.76
2022-12-03T15:21:57.092Z,3.89
2022-12-03T15:24:25.000Z,4.21
2022-12-03T15:26:53.521Z,4.16
2022-12-03T15:29:22.986Z,4.29
2022-12-03T15:31:50.776Z,4.12
2022-12-03T15:34:22.485Z,3.95
2022-12-03T15:36:50.924Z,4.14
2022-12-03T15:39:18.662Z,3.99
2022-12-03T15:41:46.399Z,3.76
2022-12-03T15:44:14.151Z,3.69
2022-12-03T15:46:43.315Z,4.17
2022-12-03T15:49:11.882Z,3.83
2022-12-03T15:51:39.599Z,4.25
2022-12-03T15:54:07.468Z,4.01
2022-12-03T15:56:37.564Z,4.05
2022-12-03T15:59:05.680Z,3.97
2022-12-03T16:01:33.720Z,4.19
2022-12-03T16:04:03.126Z,4.19
2022-12-03T16:06:30.932Z,3.97
2022-12-03T16:08:58.698Z,4.07
2022-12-03T16:11:26.764Z,4.09
2022-12-03T16:13:54.503Z,4.18
2022-12-03T16:16:22.372Z,4.01
2022-12-03T16:18:50.250Z,4.16
2022-12-03T16:21:23.504Z,3.84
2022-12-03T16:23:54.353Z,3.97
2022-12-03T16:26:22.136Z,3.84
2022-12-03T16:28:51.925Z,3.40
2022-12-03T16:31:21.699Z,3.59
2022-12-03T16:33:49.877Z,3.98
2022-12-03T16:36:19.042Z,3.83
2022-12-03T16:38:46.787Z,3.96
2022-12-03T16:41:14.501Z,4.00
2022-12-03T16:43:45.449Z,3.99
2022-12-03T16:46:25.954Z,3.47
2022-12-03T16:48:55.352Z,4.01
2022-12-03T16:51:24.914Z,3.97
2022-12-03T16:53:52.774Z,3.64
2022-12-03T16:56:21.358Z,3.53
2022-12-03T16:58:49.148Z,4.20
2022-12-03T17:01:17.106Z,4.31
2022-12-03T17:03:44.837Z,3.12
2022-12-03T17:06:12.655Z,3.83
2022-12-03T17:08:47.271Z,3.63
2022-12-03T17:11:16.983Z,3.34
2022-12-03T17:13:44.721Z,3.77
2022-12-03T17:16:12.448Z,3.93
2022-12-03T17:18:40.232Z,3.74
2022-12-03T17:21:07.915Z,3.37
2022-12-03T17:23:35.667Z,3.19
2022-12-03T17:26:04.906Z,3.27
2022-12-03T17:28:32.659Z,3.51
2022-12-03T17:31:00.441Z,3.70
2022-12-03T17:33:28.303Z,3.30
2022-12-03T17:35:56.018Z,3.16
2022-12-03T17:38:23.763Z,3.15
2022-12-03T17:40:51.595Z,3.46
2022-12-03T17:43:20.747Z,3.55
2022-12-03T17:45:48.575Z,3.46
2022-12-03T17:48:16.649Z,3.26
2022-12-03T17:50:44.459Z,3.24
2022-12-03T17:53:12.326Z,3.10
2022-12-03T17:55:44.713Z,2.78
2022-12-03T17:58:13.528Z,3.09
2022-12-03T18:00:42.743Z,2.76
2022-12-03T18:03:10.607Z,3.11
2022-12-03T18:05:38.430Z,3.16
2022-12-03T18:08:07.058Z,3.12
2022-12-03T18:10:34.907Z,2.79
2022-12-03T18:13:03.130Z,3.12
2022-12-03T18:15:31.502Z,3.29
2022-12-03T18:18:00.599Z,3.16
2022-12-03T18:20:28.572Z,3.32
2022-12-03T18:22:56.346Z,3.36
2022-12-03T18:25:24.170Z,3.26
2022-12-03T18:27:51.909Z,3.61
2022-12-03T18:30:19.708Z,3.92
2022-12-03T18:32:47.775Z,3.81
2022-12-03T18:35:17.135Z,3.68
2022-12-03T18:37:44.881Z,3.57
2022-12-03T18:40:19.807Z,3.95
2022-12-03T18:42:47.776Z,3.61
2022-12-03T18:45:16.402Z,3.64
2022-12-03T18:47:44.515Z,3.84
2022-12-03T18:50:13.065Z,3.92
2022-12-03T18:52:42.283Z,3.84
2022-12-03T18:55:17.474Z,3.93
2022-12-03T18:57:45.590Z,3.96
2022-12-03T19:00:14.728Z,3.95
2022-12-03T19:05:30.433Z,3.64
2022-12-03T19:07:59.810Z,3.46
2022-12-03T19:10:28.231Z,3.40
2022-12-03T19:12:56.024Z,3.26
2022-12-03T19:15:24.083Z,3.36
2022-12-03T19:17:52.255Z,3.35
2022-12-03T19:20:20.158Z,3.64
2022-12-03T19:22:47.930Z,3.41
2022-12-03T19:25:17.169Z,3.49
2022-12-03T19:27:44.884Z,3.72
2022-12-03T19:30:13.587Z,3.55
2022-12-03T19:32:41.323Z,3.79
2022-12-03T19:35:11.391Z,3.61
2022-12-03T19:37:39.194Z,3.49
2022-12-03T19:40:10.151Z,3.46
2022-12-03T19:42:39.654Z,3.31
2022-12-03T19:45:08.618Z,3.28
2022-12-03T19:47:37.016Z,3.10
2022-12-03T19:50:05.641Z,3.09
2022-12-03T19:52:36.366Z,2.84
2022-12-03T19:55:05.093Z,2.86
2022-12-03T19:57:32.825Z,2.76
2022-12-03T20:00:02.169Z,2.63
2022-12-03T20:02:40.206Z,2.76
2022-12-03T20:05:08.154Z,2.60
2022-12-03T20:07:35.954Z,2.90
2022-12-03T20:10:03.862Z,3.05
2022-12-03T20:12:31.586Z,2.84
2022-12-03T20:14:59.299Z,2.85
2022-12-03T20:17:28.459Z,3.30
2022-12-03T20:19:56.497Z,3.02
2022-12-03T20:22:24.428Z,2.88
2022-12-03T20:24:52.211Z,2.78
2022-12-03T20:27:22.991Z,3.03
2022-12-03T20:29:50.925Z,3.05
2022-12-03T20:32:18.870Z,3.16
2022-12-03T20:34:49.558Z,2.97
2022-12-03T20:37:17.648Z,3.13
2022-12-03T20:39:45.583Z,3.29
2022-12-03T20:42:13.335Z,3.50
2022-12-03T20:44:41.081Z,3.45
2022-12-03T20:47:08.852Z,3.48
2022-12-03T20:49:38.979Z,3.48
2022-12-03T20:52:08.117Z,3.19
2022-12-03T20:54:35.894Z,3.18
2022-12-03T20:57:04.076Z,3.37
2022-12-03T20:59:32.830Z,3.14
2022-12-03T21:02:00.653Z,3.10
2022-12-03T21:04:28.524Z,3.07
2022-12-03T21:06:56.289Z,3.13
2022-12-03T21:09:25.399Z,3.04
2022-12-03T21:11:53.126Z,3.29
2022-12-03T21:14:20.919Z,3.44
2022-12-03T21:19:37.638Z,3.27
2022-12-03T21:22:06.039Z,3.73
2022-12-03T21:24:35.394Z,3.83
2022-12-03T21:27:03.511Z,3.71
2022-12-03T21:29:31.346Z,2.99
2022-12-03T21:31:59.380Z,2.88
2022-12-03T21:34:31.309Z,2.88
2022-12-03T21:37:05.358Z,3.25
2022-12-03T21:39:33.116Z,3.28
2022-12-03T21:42:36.146Z,3.52
2022-12-03T21:44:50.229Z,3.79
2022-12-03T21:47:18.052Z,3.37
2022-12-03T21:49:45.865Z,3.36
2022-12-03T21:52:13.677Z,3.44
2022-12-03T21:54:41.437Z,3.00
2022-12-03T21:57:10.571Z,3.18
2022-12-03T21:59:38.308Z,3.40
2022-12-03T22:02:06.294Z,3.41
2022-12-03T22:04:34.169Z,3.39
2022-12-03T22:07:01.940Z,3.23
2022-12-03T22:09:29.729Z,3.10
2022-12-03T22:12:00.564Z,3.15
2022-12-03T22:14:29.830Z,2.94
2022-12-03T22:16:57.863Z,2.88
2022-12-03T22:19:26.670Z,3.30
2022-12-03T22:21:54.387Z,3.41
2022-12-03T22:24:23.723Z,3.43
2022-12-03T22:26:52.172Z,3.41
2022-12-03T22:29:19.943Z,3.18
2022-12-03T22:31:48.980Z,3.55
2022-12-03T22:34:16.780Z,3.32
2022-12-03T22:36:44.512Z,3.39
2022-12-03T22:39:12.798Z,3.38
2022-12-03T22:41:40.762Z,3.64
2022-12-03T22:44:08.448Z,3.65
2022-12-03T22:46:36.304Z,3.70
2022-12-03T22:49:07.613Z,3.57
2022-12-03T22:51:35.816Z,3.42
2022-12-03T22:54:03.715Z,3.65
2022-12-03T22:56:32.160Z,3.49
2022-12-03T22:58:59.975Z,3.51
2022-12-03T23:01:30.380Z,3.41
2022-12-03T23:03:58.474Z,3.50
2022-12-03T23:06:28.232Z,3.37
2022-12-03T23:08:56.954Z,3.15
2022-12-03T23:11:24.846Z,3.45
2022-12-03T23:13:52.806Z,3.63
2022-12-03T23:16:23.289Z,3.38
2022-12-03T23:18:51.535Z,3.83
2022-12-03T23:21:27.065Z,3.82
2022-12-03T23:23:58.611Z,3.96
2022-12-03T23:26:26.649Z,3.72
2022-12-03T23:28:54.514Z,3.29
2022-12-03T23:31:24.986Z,3.13
2022-12-03T23:33:53.799Z,3.15
2022-12-03T23:36:22.271Z,2.90
2022-12-03T23:38:50.172Z,3.09
2022-12-03T23:41:22.634Z,3.15
2022-12-03T23:43:50.373Z,3.37
2022-12-03T23:46:21.079Z,3.67
2022-12-03T23:48:49.461Z,3.64
2022-12-03T23:51:19.397Z,3.52
2022-12-03T23:53:47.499Z,4.14
2022-12-03T23:56:17.612Z,4.29
2022-12-03T23:58:47.123Z,3.83
